Time;durP1;ratioP1;P1;durP2;ratioP2;P2;SDS_P1;SDS_P2;PMS_P1;PMS_P2;Temp;Humidity;BMP_temperature;BMP_pressure;BME280_temperature;BME280_humidity;BME280_pressure;Samples;Min_cycle;Max_cycle;Signal;HPM_P1;HPM_P2
2023/04/13 00:00:29;;;;;;;16.90;4.13;;;8.70;88.40;;;;;;5033586;28;20592;-75
2023/04/13 00:02:55;;;;;;;22.15;4.60;;;8.60;88.50;;;;;;5025505;28;20258;-75
2023/04/13 00:05:22;;;;;;;22.05;3.88;;;8.70;88.50;;;;;;5033086;28;20082;-75
2023/04/13 00:07:49;;;;;;;19.83;4.20;;;8.70;88.40;;;;;;5025873;28;20042;-74
2023/04/13 00:10:17;;;;;;;26.60;4.28;;;8.70;88.20;;;;;;5029977;28;20340;-76
2023/04/13 00:12:46;;;;;;;24.08;3.70;;;8.70;88.00;;;;;;5026248;28;20116;-75
2023/04/13 00:15:16;;;;;;;17.60;4.00;;;8.80;87.70;;;;;;5032250;28;20486;-76
2023/04/13 00:17:42;;;;;;;20.45;4.20;;;8.80;87.80;;;;;;5024501;28;20135;-75
2023/04/13 00:20:12;;;;;;;21.80;4.45;;;8.80;87.60;;;;;;5028568;28;20505;-75
2023/04/13 00:22:39;;;;;;;20.88;4.00;;;8.80;87.30;;;;;;5032846;28;20046;-74
2023/04/13 00:25:05;;;;;;;14.77;2.78;;;8.70;87.20;;;;;;5026256;28;20060;-74
2023/04/13 00:27:31;;;;;;;9.52;2.17;;;8.60;86.70;;;;;;5027199;28;20482;-75
2023/04/13 00:29:57;;;;;;;7.43;1.85;;;8.40;85.90;;;;;;5032629;28;20029;-74
2023/04/13 00:32:24;;;;;;;6.45;2.15;;;8.20;85.20;;;;;;5030020;28;20112;-76
2023/04/13 00:34:50;;;;;;;8.27;2.00;;;8.20;85.60;;;;;;5024478;28;20471;-74
2023/04/13 00:37:17;;;;;;;10.00;2.10;;;8.30;85.70;;;;;;5040224;28;20402;-74
2023/04/13 00:39:45;;;;;;;6.97;2.00;;;8.30;85.70;;;;;;5029276;28;20018;-77
2023/04/13 00:42:11;;;;;;;8.88;2.75;;;8.30;85.70;;;;;;5029454;28;20033;-75
2023/04/13 00:44:37;;;;;;;10.15;2.47;;;8.30;85.90;;;;;;5031470;28;20034;-77
2023/04/13 00:47:04;;;;;;;8.77;2.22;;;8.30;85.80;;;;;;5032051;28;20619;-74
2023/04/13 00:49:34;;;;;;;7.70;1.70;;;8.30;86.10;;;;;;5024407;28;20026;-75
2023/04/13 00:52:01;;;;;;;7.00;1.77;;;8.40;85.80;;;;;;5027736;28;20050;-75
2023/04/13 00:54:30;;;;;;;4.35;1.30;;;8.30;85.90;;;;;;5030951;28;20021;-74
2023/04/13 00:56:57;;;;;;;3.45;1.10;;;8.20;85.30;;;;;;5030571;28;20048;-74
2023/04/13 00:59:29;;;;;;;5.13;1.23;;;8.20;85.40;;;;;;5032813;28;20099;-75
2023/04/13 01:02:00;;;;;;;4.68;1.10;;;8.10;85.40;;;;;;5022977;28;20025;-75
2023/04/13 01:04:29;;;;;;;3.10;1.48;;;8.00;85.50;;;;;;5034172;28;20091;-75
2023/04/13 01:07:35;;;;;;;2.67;1.10;;;8.10;85.50;;;;;;5033906;28;20041;-76
2023/04/13 01:10:17;;;;;;;4.05;1.00;;;8.00;85.40;;;;;;5027601;28;20663;-75
2023/04/13 01:13:06;;;;;;;5.72;1.25;;;7.90;85.20;;;;;;5021041;28;20034;-75
2023/04/13 01:15:36;;;;;;;4.57;1.50;;;7.90;85.40;;;;;;5027425;28;20556;-76
2023/04/13 01:18:07;;;;;;;3.50;1.45;;;7.90;85.40;;;;;;5024743;28;20376;-74
2023/04/13 01:20:36;;;;;;;4.72;1.33;;;8.00;85.40;;;;;;5031932;28;20040;-75
2023/04/13 01:23:11;;;;;;;5.43;1.73;;;8.00;85.50;;;;;;5030329;28;20099;-75
2023/04/13 01:25:49;;;;;;;5.70;1.85;;;8.00;85.30;;;;;;5020796;28;20042;-75
2023/04/13 01:28:18;;;;;;;5.40;1.55;;;7.90;85.20;;;;;;5033558;28;20025;-75
2023/04/13 01:30:45;;;;;;;5.72;1.77;;;7.90;85.50;;;;;;5029944;28;20039;-75
2023/04/13 01:33:12;;;;;;;7.90;2.30;;;7.80;85.50;;;;;;5033485;28;20029;-75
2023/04/13 01:35:38;;;;;;;6.47;2.15;;;7.80;85.60;;;;;;5023836;28;20415;-75
2023/04/13 01:38:05;;;;;;;8.55;2.22;;;7.80;85.70;;;;;;5024418;28;20035;-76
2023/04/13 01:40:33;;;;;;;5.32;2.60;;;7.80;85.40;;;;;;5029390;28;20052;-74
2023/04/13 01:42:59;;;;;;;5.18;1.90;;;7.80;85.30;;;;;;5028513;28;20064;-77
2023/04/13 01:45:28;;;;;;;7.07;1.98;;;7.90;85.30;;;;;;5024346;28;20056;-76
2023/04/13 01:48:12;;;;;;;3.65;1.60;;;7.90;85.20;;;;;;5032066;28;20052;-75
2023/04/13 01:50:44;;;;;;;5.37;2.03;;;7.90;85.20;;;;;;5038264;28;20104;-75
2023/04/13 01:53:26;;;;;;;5.97;2.40;;;7.90;85.20;;;;;;5030928;28;20139;-74
2023/04/13 01:55:52;;;;;;;8.20;2.10;;;7.90;85.20;;;;;;5021145;28;20033;-75
2023/04/13 01:58:19;;;;;;;7.82;1.80;;;7.80;85.50;;;;;;5029927;28;20450;-74
2023/04/13 02:00:46;;;;;;;5.10;1.55;;;7.80;85.60;;;;;;5025606;28;20048;-75
2023/04/13 02:03:14;;;;;;;8.98;1.52;;;7.70;85.80;;;;;;5026546;28;20462;-74
2023/04/13 02:05:40;;;;;;;3.95;1.38;;;7.80;85.50;;;;;;5030039;28;20033;-74
2023/04/13 02:08:08;;;;;;;3.83;1.45;;;7.80;85.50;;;;;;5031785;28;20032;-75
2023/04/13 02:10:36;;;;;;;6.00;1.70;;;7.80;85.30;;;;;;5030824;28;20029;-75
2023/04/13 02:13:06;;;;;;;3.63;1.48;;;7.80;85.40;;;;;;5034396;28;20120;-75
2023/04/13 02:15:37;;;;;;;3.25;1.60;;;7.70;85.60;;;;;;5028264;28;20025;-74
2023/04/13 02:18:03;;;;;;;5.18;1.42;;;7.60;85.60;;;;;;5034196;28;20511;-75
2023/04/13 02:20:39;;;;;;;4.63;1.58;;;7.60;85.70;;;;;;5029691;28;20018;-75
2023/04/13 02:23:07;;;;;;;6.70;2.00;;;7.60;85.70;;;;;;5031484;28;20061;-74
2023/04/13 02:25:32;;;;;;;6.22;2.00;;;7.60;85.70;;;;;;5023165;28;20124;-76
2023/04/13 02:27:58;;;;;;;6.72;2.55;;;7.60;85.80;;;;;;5026917;28;20129;-75
2023/04/13 02:30:25;;;;;;;8.75;2.25;;;7.60;85.90;;;;;;5022352;28;20140;-76
2023/04/13 02:32:51;;;;;;;6.97;2.38;;;7.60;86.00;;;;;;5026929;28;20505;-75
2023/04/13 02:35:17;;;;;;;6.50;2.40;;;7.60;86.20;;;;;;5027442;28;20411;-75
2023/04/13 02:37:42;;;;;;;10.80;2.65;;;7.50;86.20;;;;;;5026410;28;20068;-76
2023/04/13 02:40:11;;;;;;;6.35;2.50;;;7.50;86.50;;;;;;5032132;28;20025;-75
2023/04/13 02:42:41;;;;;;;6.95;2.33;;;7.50;86.60;;;;;;5023058;28;20056;-75
2023/04/13 02:45:17;;;;;;;8.82;2.67;;;7.50;86.60;;;;;;5037434;28;20045;-75
2023/04/13 02:47:43;;;;;;;6.72;2.50;;;7.50;86.80;;;;;;5028061;28;20046;-75
2023/04/13 02:50:10;;;;;;;7.80;2.65;;;7.50;86.60;;;;;;5033570;28;20029;-75
2023/04/13 02:52:36;;;;;;;7.88;2.28;;;7.50;86.70;;;;;;5024606;28;20407;-75
2023/04/13 02:55:03;;;;;;;8.55;2.42;;;7.50;86.70;;;;;;5036550;28;20087;-75
2023/04/13 02:57:30;;;;;;;7.88;2.20;;;7.50;86.70;;;;;;5027750;28;20044;-75
2023/04/13 02:59:56;;;;;;;7.65;2.10;;;7.40;86.90;;;;;;5030671;28;20041;-75
2023/04/13 03:02:22;;;;;;;5.65;2.00;;;7.40;86.80;;;;;;5025564;28;20120;-75
2023/04/13 03:04:47;;;;;;;6.75;2.47;;;7.40;86.90;;;;;;5030482;28;20393;-75
2023/04/13 03:07:13;;;;;;;6.28;2.47;;;7.40;86.80;;;;;;5032885;28;20470;-75
2023/04/13 03:09:40;;;;;;;7.28;2.55;;;7.40;86.80;;;;;;5031226;28;20036;-75
2023/04/13 03:12:08;;;;;;;9.45;2.40;;;7.40;86.70;;;;;;5032534;28;20033;-74
2023/04/13 03:14:35;;;;;;;9.73;2.58;;;7.40;86.80;;;;;;5031172;28;20470;-75
2023/04/13 03:17:06;;;;;;;7.78;2.55;;;7.40;86.80;;;;;;5020462;28;20144;-75
2023/04/13 03:19:32;;;;;;;6.68;2.20;;;7.40;86.90;;;;;;5034845;28;20284;-75
2023/04/13 03:21:57;;;;;;;9.82;3.03;;;7.40;86.80;;;;;;5020622;28;20494;-74
2023/04/13 03:24:27;;;;;;;6.43;2.22;;;7.40;86.70;;;;;;5027107;28;20517;-75
2023/04/13 03:26:56;;;;;;;8.90;2.42;;;7.40;86.80;;;;;;5031509;28;20046;-76
2023/04/13 03:29:23;;;;;;;8.90;1.90;;;7.40;86.60;;;;;;5033821;28;20488;-77
2023/04/13 03:31:50;;;;;;;7.75;2.30;;;7.50;86.80;;;;;;5026810;28;20038;-75
2023/04/13 03:34:16;;;;;;;6.72;2.70;;;7.50;86.70;;;;;;5022245;28;20044;-74
2023/04/13 03:36:41;;;;;;;7.00;2.65;;;7.60;86.60;;;;;;5025576;28;20048;-73
2023/04/13 03:39:07;;;;;;;6.25;2.00;;;7.60;86.60;;;;;;5028438;28;20029;-75
2023/04/13 03:41:33;;;;;;;7.47;2.40;;;7.70;86.60;;;;;;5028327;28;20073;-76
2023/04/13 03:43:58;;;;;;;7.65;2.10;;;7.70;86.70;;;;;;5034463;28;20086;-75
2023/04/13 03:46:24;;;;;;;5.57;1.98;;;7.80;86.60;;;;;;5028825;28;20378;-75
2023/04/13 03:48:50;;;;;;;8.10;2.70;;;7.80;86.90;;;;;;5027269;28;20029;-76
2023/04/13 03:51:15;;;;;;;6.85;2.80;;;7.90;86.90;;;;;;5038833;28;20033;-76
2023/04/13 03:53:41;;;;;;;10.05;2.42;;;7.90;87.20;;;;;;5034105;28;20288;-76
2023/04/13 03:56:07;;;;;;;7.47;2.17;;;7.90;87.20;;;;;;5024704;28;20042;-76
2023/04/13 03:58:34;;;;;;;4.80;2.08;;;7.90;87.20;;;;;;5029329;28;20045;-75
2023/04/13 04:00:59;;;;;;;7.53;2.05;;;7.90;87.00;;;;;;5031806;28;20029;-75
2023/04/13 04:03:26;;;;;;;8.73;2.83;;;7.90;87.20;;;;;;5032743;28;20427;-75
2023/04/13 04:05:51;;;;;;;7.45;2.30;;;7.90;87.20;;;;;;5029417;28;20097;-75
2023/04/13 04:08:17;;;;;;;8.15;2.15;;;7.90;87.20;;;;;;5027496;28;20612;-76
2023/04/13 04:10:42;;;;;;;12.82;2.80;;;7.90;87.10;;;;;;5020904;28;20389;-75
2023/04/13 04:13:08;;;;;;;9.30;2.60;;;7.80;87.10;;;;;;5036108;28;20029;-76
2023/04/13 04:15:34;;;;;;;8.32;2.20;;;7.80;87.00;;;;;;5027594;28;20025;-75
2023/04/13 04:18:00;;;;;;;11.10;2.53;;;7.80;87.10;;;;;;5031591;28;20171;-75
2023/04/13 04:20:26;;;;;;;13.38;2.58;;;7.80;87.30;;;;;;5029831;28;20030;-77
2023/04/13 04:22:52;;;;;;;12.00;2.95;;;7.80;87.30;;;;;;5030749;28;20025;-75
2023/04/13 04:25:21;;;;;;;14.15;3.28;;;7.90;87.10;;;;;;5015436;28;20870;-75
2023/04/13 04:27:48;;;;;;;11.85;2.83;;;7.90;87.00;;;;;;5036172;28;20124;-75
2023/04/13 04:30:14;;;;;;;11.23;2.55;;;7.90;86.80;;;;;;5026513;28;20022;-76
2023/04/13 04:32:40;;;;;;;10.00;2.75;;;7.90;86.30;;;;;;5024446;28;20038;-78
2023/04/13 04:35:07;;;;;;;9.82;3.03;;;8.10;86.00;;;;;;5028111;28;20029;-75
2023/04/13 04:37:36;;;;;;;10.70;2.70;;;8.00;85.80;;;;;;5027970;28;20509;-75
2023/04/13 04:40:09;;;;;;;13.45;2.80;;;8.10;85.40;;;;;;5028882;28;20044;-75
2023/04/13 04:42:36;;;;;;;14.13;3.90;;;8.10;84.90;;;;;;5023615;28;20053;-77
2023/04/13 04:45:06;;;;;;;11.27;3.00;;;8.10;84.80;;;;;;5026411;28;20048;-75
2023/04/13 04:47:31;;;;;;;10.38;2.83;;;8.10;84.40;;;;;;5024941;28;20403;-75
2023/04/13 04:49:57;;;;;;;14.38;3.33;;;8.10;84.30;;;;;;5027934;28;20024;-76
2023/04/13 04:52:26;;;;;;;13.27;3.42;;;8.10;84.20;;;;;;5021859;28;20042;-78
2023/04/13 04:54:52;;;;;;;13.30;3.10;;;8.20;83.90;;;;;;5032915;28;20485;-75
2023/04/13 04:57:18;;;;;;;14.60;3.58;;;8.10;83.80;;;;;;5022871;28;20133;-75
2023/04/13 04:59:44;;;;;;;14.82;3.35;;;8.10;83.80;;;;;;5025819;28;20368;-75
2023/04/13 05:02:10;;;;;;;15.32;2.90;;;8.10;83.80;;;;;;5028807;28;20116;-76
2023/04/13 05:04:36;;;;;;;13.70;3.88;;;8.10;83.40;;;;;;5030460;28;20045;-75
2023/04/13 05:07:01;;;;;;;14.40;3.97;;;8.10;83.50;;;;;;5034578;28;20044;-75
2023/04/13 05:09:27;;;;;;;15.65;3.50;;;8.10;83.50;;;;;;5037442;28;20021;-75
2023/04/13 05:11:53;;;;;;;9.73;2.90;;;8.10;83.30;;;;;;5032402;28;20068;-77
2023/04/13 05:14:19;;;;;;;13.93;3.70;;;8.10;83.10;;;;;;5037163;28;20065;-76
2023/04/13 05:16:45;;;;;;;16.60;3.88;;;8.10;83.10;;;;;;5028987;28;20052;-77
2023/04/13 05:19:11;;;;;;;15.07;3.35;;;8.10;83.00;;;;;;5032624;28;20029;-76
2023/04/13 05:21:37;;;;;;;9.70;3.08;;;8.10;82.80;;;;;;5030908;28;20045;-76
2023/04/13 05:24:03;;;;;;;14.32;3.05;;;8.20;82.30;;;;;;5032584;28;20026;-77
2023/04/13 05:26:29;;;;;;;16.70;3.85;;;8.30;81.60;;;;;;5027827;28;20049;-77
2023/04/13 05:28:55;;;;;;;12.68;3.13;;;8.30;81.30;;;;;;5033005;28;20017;-77
2023/04/13 05:31:23;;;;;;;16.40;3.40;;;8.30;81.40;;;;;;5027298;28;20037;-77
2023/04/13 05:33:48;;;;;;;14.13;3.70;;;8.30;81.20;;;;;;5032301;28;20041;-77
2023/04/13 05:36:14;;;;;;;15.57;3.97;;;8.30;81.20;;;;;;5031619;28;20338;-77
2023/04/13 05:38:40;;;;;;;17.17;3.78;;;8.40;80.70;;;;;;5026401;28;20028;-77
2023/04/13 05:41:06;;;;;;;14.85;3.47;;;8.30;80.60;;;;;;5026411;28;20038;-76
2023/04/13 05:43:33;;;;;;;16.15;3.55;;;8.40;80.30;;;;;;5032996;28;20189;-77
2023/04/13 05:45:59;;;;;;;18.67;3.40;;;8.40;80.40;;;;;;5024819;28;20478;-76
2023/04/13 05:48:25;;;;;;;14.13;3.47;;;8.40;80.70;;;;;;5026954;28;20036;-78
2023/04/13 05:50:56;;;;;;;18.52;3.20;;;8.40;80.40;;;;;;5025840;28;20067;-76
2023/04/13 05:53:21;;;;;;;15.52;3.90;;;8.40;79.70;;;;;;5033485;28;20525;-77
2023/04/13 05:55:47;;;;;;;13.27;3.60;;;8.50;79.90;;;;;;5030413;28;20112;-76
2023/04/13 05:58:13;;;;;;;14.40;4.18;;;8.50;79.60;;;;;;5029443;28;20068;-77
2023/04/13 06:00:38;;;;;;;19.50;3.67;;;8.50;79.90;;;;;;5038724;28;20047;-77
2023/04/13 06:03:05;;;;;;;17.88;4.13;;;8.60;79.90;;;;;;5037273;28;20099;-78
2023/04/13 06:05:34;;;;;;;16.63;3.38;;;8.60;79.60;;;;;;5029372;28;20030;-79
2023/04/13 06:07:59;;;;;;;19.05;3.50;;;8.60;79.20;;;;;;5040077;28;20042;-75
2023/04/13 06:10:25;;;;;;;16.88;3.30;;;8.50;79.00;;;;;;5030385;28;20030;-78
2023/04/13 06:12:51;;;;;;;18.63;3.97;;;8.60;78.70;;;;;;5038035;28;20044;-77
2023/04/13 06:15:18;;;;;;;15.68;3.42;;;8.60;78.50;;;;;;5028709;28;20025;-76
2023/04/13 06:17:43;;;;;;;13.30;3.30;;;8.60;78.40;;;;;;5024817;28;20042;-76
2023/04/13 06:20:10;;;;;;;14.27;3.78;;;8.60;78.20;;;;;;5026906;28;20028;-76
2023/04/13 06:22:35;;;;;;;15.48;3.38;;;8.60;78.20;;;;;;5032164;28;20116;-77
2023/04/13 06:25:01;;;;;;;15.63;3.25;;;8.60;78.30;;;;;;5028894;28;20125;-77
2023/04/13 06:27:28;;;;;;;15.27;3.67;;;8.70;77.90;;;;;;5029141;28;20037;-77
2023/04/13 06:29:54;;;;;;;18.58;3.42;;;8.80;77.40;;;;;;5035507;28;20026;-76
2023/04/13 06:32:20;;;;;;;20.25;4.47;;;8.70;77.50;;;;;;5026050;28;20042;-75
2023/04/13 06:34:46;;;;;;;14.27;3.95;;;8.80;77.40;;;;;;5029873;28;20120;-76
2023/04/13 06:37:12;;;;;;;19.00;3.85;;;8.90;76.90;;;;;;5028602;28;20414;-76
2023/04/13 06:39:37;;;;;;;14.38;3.45;;;9.00;76.80;;;;;;5026957;28;20474;-76
2023/04/13 06:42:03;;;;;;;14.82;3.40;;;9.00;76.20;;;;;;5034260;28;20033;-78
2023/04/13 06:44:29;;;;;;;14.80;3.70;;;9.10;75.70;;;;;;5039844;28;20025;-75
2023/04/13 06:46:55;;;;;;;16.20;4.18;;;9.10;75.70;;;;;;5029992;28;20098;-76
2023/04/13 06:49:21;;;;;;;16.33;3.08;;;9.20;75.80;;;;;;5032813;28;20021;-76
2023/04/13 06:51:47;;;;;;;14.02;3.03;;;9.20;75.60;;;;;;5030844;28;20497;-75
2023/04/13 06:54:13;;;;;;;16.67;3.75;;;9.30;75.00;;;;;;5031720;28;20037;-77
2023/04/13 06:56:38;;;;;;;14.57;3.72;;;9.30;74.60;;;;;;5028137;28;20073;-76
2023/04/13 06:59:04;;;;;;;16.92;3.50;;;9.40;74.50;;;;;;5028414;28;20077;-77
2023/04/13 07:01:30;;;;;;;13.75;3.35;;;9.30;74.20;;;;;;5032393;28;20402;-76
2023/04/13 07:03:57;;;;;;;15.40;3.58;;;9.40;74.50;;;;;;5024770;28;20034;-77
2023/04/13 07:06:23;;;;;;;14.27;2.80;;;9.50;73.70;;;;;;5029115;28;20053;-78
2023/04/13 07:08:49;;;;;;;14.45;3.38;;;9.60;72.90;;;;;;5028774;28;20386;-77
2023/04/13 07:11:15;;;;;;;13.73;2.92;;;9.60;73.10;;;;;;5030762;28;20218;-77
2023/04/13 07:13:41;;;;;;;16.02;3.40;;;9.60;73.60;;;;;;5030429;28;20029;-76
2023/04/13 07:16:07;;;;;;;17.55;4.07;;;9.80;72.80;;;;;;5025034;28;20458;-76
2023/04/13 07:18:34;;;;;;;17.88;3.30;;;10.00;72.80;;;;;;5023238;28;20048;-76
2023/04/13 07:21:00;;;;;;;18.85;3.72;;;10.10;72.00;;;;;;5025586;28;20103;-77
2023/04/13 07:23:26;;;;;;;11.55;2.83;;;10.30;71.50;;;;;;5021348;28;20516;-77
2023/04/13 07:25:52;;;;;;;15.70;3.70;;;10.50;71.20;;;;;;5026995;28;20033;-77
2023/04/13 07:28:17;;;;;;;19.17;3.90;;;10.30;70.80;;;;;;5029924;28;20052;-76
2023/04/13 07:30:44;;;;;;;14.88;3.30;;;10.40;70.60;;;;;;5029684;28;20457;-77
2023/04/13 07:33:11;;;;;;;17.17;4.43;;;10.40;70.30;;;;;;5023377;28;20017;-78
2023/04/13 07:35:37;;;;;;;16.13;3.55;;;10.50;70.50;;;;;;5025421;28;20079;-77
2023/04/13 07:38:03;;;;;;;15.05;3.10;;;10.60;71.00;;;;;;5026839;28;20025;-76
2023/04/13 07:40:28;;;;;;;14.73;3.20;;;10.70;69.50;;;;;;5033548;28;20312;-77
2023/04/13 07:42:55;;;;;;;17.35;4.13;;;10.70;70.30;;;;;;5029760;28;20033;-76
2023/04/13 07:45:20;;;;;;;13.55;3.17;;;10.70;68.10;;;;;;5029915;28;20430;-78
2023/04/13 07:47:47;;;;;;;17.33;3.30;;;10.60;69.40;;;;;;5032874;28;20127;-76
2023/04/13 07:50:13;;;;;;;12.25;3.08;;;10.70;70.00;;;;;;5029781;28;20167;-77
2023/04/13 07:52:39;;;;;;;17.15;3.83;;;10.80;69.20;;;;;;5027917;28;20037;-77
2023/04/13 07:55:05;;;;;;;13.77;4.32;;;10.80;68.90;;;;;;5036986;28;20039;-76
2023/04/13 07:57:31;;;;;;;14.88;2.90;;;11.00;67.70;;;;;;5032672;28;20041;-76
2023/04/13 07:59:57;;;;;;;12.70;3.45;;;11.00;68.00;;;;;;5027865;28;20473;-77
2023/04/13 08:02:23;;;;;;;18.08;3.75;;;11.10;67.90;;;;;;5026250;28;20153;-79
2023/04/13 08:04:49;;;;;;;13.65;3.10;;;11.00;68.70;;;;;;5034361;28;20550;-77
2023/04/13 08:07:15;;;;;;;19.08;4.10;;;10.80;69.00;;;;;;5021484;28;20489;-79
2023/04/13 08:09:41;;;;;;;16.00;3.08;;;10.90;68.40;;;;;;5031028;28;20090;-78
2023/04/13 08:12:08;;;;;;;14.02;3.20;;;10.90;67.80;;;;;;5026382;28;20063;-77
2023/04/13 08:14:34;;;;;;;18.42;3.92;;;10.80;68.40;;;;;;5030234;28;20044;-77
2023/04/13 08:17:00;;;;;;;18.10;3.40;;;10.80;68.50;;;;;;5026337;28;20037;-77
2023/04/13 08:19:26;;;;;;;13.93;3.53;;;10.90;68.00;;;;;;5026794;28;20029;-79
2023/04/13 08:21:52;;;;;;;14.63;2.90;;;11.00;67.20;;;;;;5025261;28;20065;-78
2023/04/13 08:24:19;;;;;;;17.00;3.15;;;11.00;66.30;;;;;;5029566;28;20466;-78
2023/04/13 08:26:45;;;;;;;16.83;3.65;;;10.80;67.00;;;;;;5031590;28;20121;-77
2023/04/13 08:29:13;;;;;;;12.73;2.70;;;10.70;66.50;;;;;;5036341;28;20060;-76
2023/04/13 08:31:39;;;;;;;15.20;3.50;;;10.90;66.00;;;;;;5038879;28;20479;-77
2023/04/13 08:34:09;;;;;;;11.50;2.92;;;11.40;66.50;;;;;;5037340;28;20044;-78
2023/04/13 08:36:35;;;;;;;21.17;3.65;;;11.30;64.30;;;;;;5031833;28;20048;-78
2023/04/13 08:39:00;;;;;;;11.68;2.95;;;11.40;65.50;;;;;;5032518;28;20009;-79
2023/04/13 08:41:26;;;;;;;13.95;2.60;;;11.60;65.60;;;;;;5037067;28;20120;-77
2023/04/13 08:43:54;;;;;;;12.32;3.25;;;11.30;64.40;;;;;;5030705;28;20147;-79
2023/04/13 08:46:20;;;;;;;14.80;3.38;;;11.00;63.10;;;;;;5019169;28;20054;-79
2023/04/13 08:48:47;;;;;;;16.80;3.30;;;11.10;65.20;;;;;;5031476;28;20024;-78
2023/04/13 08:51:13;;;;;;;13.65;3.08;;;11.10;65.20;;;;;;5032860;28;20362;-77
2023/04/13 08:53:40;;;;;;;12.27;3.42;;;11.20;65.10;;;;;;5030889;28;20030;-78
2023/04/13 08:56:09;;;;;;;13.80;2.95;;;11.00;63.30;;;;;;5024437;28;20052;-78
2023/04/13 08:58:36;;;;;;;11.00;3.03;;;11.10;63.20;;;;;;5034902;28;20048;-77
2023/04/13 09:01:05;;;;;;;10.80;2.22;;;11.50;63.70;;;;;;5035928;28;20494;-78
2023/04/13 09:03:35;;;;;;;12.77;3.10;;;12.10;62.80;;;;;;5035860;28;20022;-77
2023/04/13 09:06:08;;;;;;;10.27;2.83;;;12.10;61.40;;;;;;5037403;28;20596;-77
2023/04/13 09:08:35;;;;;;;16.17;3.63;;;12.50;61.20;;;;;;5041087;28;20047;-79
2023/04/13 09:11:02;;;;;;;11.20;2.28;;;13.00;60.70;;;;;;5035117;28;20038;-78
2023/04/13 09:13:28;;;;;;;11.75;3.00;;;12.40;57.60;;;;;;5039412;28;20052;-79
2023/04/13 09:15:54;;;;;;;15.85;2.55;;;12.20;59.80;;;;;;5030032;28;20037;-79
2023/04/13 09:18:20;;;;;;;11.82;3.15;;;11.70;59.90;;;;;;5032629;28;20029;-78
2023/04/13 09:20:56;;;;;;;9.73;2.42;;;11.60;60.80;;;;;;5039199;28;20046;-78
2023/04/13 09:23:22;;;;;;;9.35;2.47;;;11.50;61.00;;;;;;5033901;28;20645;-77
2023/04/13 09:25:47;;;;;;;14.20;3.17;;;11.60;60.60;;;;;;5029118;28;20056;-78
2023/04/13 09:28:18;;;;;;;10.48;2.67;;;11.50;61.20;;;;;;5029457;28;20025;-78
2023/04/13 09:30:44;;;;;;;16.38;2.63;;;11.30;60.70;;;;;;5031716;28;20083;-78
2023/04/13 09:33:11;;;;;;;10.90;2.80;;;11.40;61.90;;;;;;5033119;28;20117;-77
2023/04/13 09:35:37;;;;;;;8.45;2.67;;;11.80;61.00;;;;;;5034373;28;20028;-79
2023/04/13 09:38:04;;;;;;;11.48;2.40;;;11.90;59.40;;;;;;5032886;28;20029;-77
2023/04/13 09:40:30;;;;;;;12.23;2.70;;;11.80;60.10;;;;;;5034113;28;20028;-76
2023/04/13 09:42:58;;;;;;;11.02;2.90;;;12.00;59.60;;;;;;5033270;28;20033;-77
2023/04/13 09:45:23;;;;;;;14.20;2.85;;;12.20;58.50;;;;;;5033543;28;20041;-79
2023/04/13 09:47:51;;;;;;;14.23;3.25;;;12.30;57.50;;;;;;5026087;28;20112;-79
2023/04/13 09:50:27;;;;;;;10.25;2.58;;;12.20;58.90;;;;;;5032025;28;20514;-78
2023/04/13 09:52:59;;;;;;;12.48;3.55;;;12.50;56.50;;;;;;5026460;28;20033;-78
2023/04/13 09:55:26;;;;;;;13.35;2.92;;;12.80;57.60;;;;;;5036614;28;20030;-77
2023/04/13 09:57:52;;;;;;;14.13;3.05;;;12.90;57.40;;;;;;5027648;28;20343;-78
2023/04/13 10:00:22;;;;;;;13.77;2.70;;;13.00;57.40;;;;;;5032959;28;20053;-77
2023/04/13 10:02:51;;;;;;;9.45;2.80;;;12.90;58.10;;;;;;5035165;28;20042;-78
2023/04/13 10:05:23;;;;;;;10.10;2.58;;;12.80;57.70;;;;;;5029171;28;20034;-78
2023/04/13 10:07:50;;;;;;;9.20;2.75;;;13.10;56.40;;;;;;5030811;28;20033;-77
2023/04/13 10:10:16;;;;;;;12.23;3.30;;;13.60;55.50;;;;;;5027556;28;20114;-76
2023/04/13 10:12:55;;;;;;;14.68;2.55;;;13.60;54.10;;;;;;5030490;28;20477;-78
2023/04/13 10:15:39;;;;;;;10.02;2.65;;;13.70;54.50;;;;;;5031072;28;20041;-77
2023/04/13 10:18:26;;;;;;;8.63;2.67;;;13.50;55.70;;;;;;5031151;28;20520;-77
2023/04/13 10:20:56;;;;;;;7.55;2.33;;;13.10;55.90;;;;;;5027964;28;20297;-77
2023/04/13 10:23:22;;;;;;;9.68;2.25;;;12.80;56.80;;;;;;5034194;28;20486;-78
2023/04/13 10:25:52;;;;;;;11.18;2.60;;;12.60;57.10;;;;;;5029329;28;20056;-76
2023/04/13 10:28:18;;;;;;;10.18;2.45;;;12.80;57.00;;;;;;5029319;28;20033;-76
2023/04/13 10:30:50;;;;;;;15.15;2.72;;;13.10;56.50;;;;;;5027774;28;20038;-76
2023/04/13 10:33:17;;;;;;;7.22;2.20;;;13.00;54.60;;;;;;5030869;28;20056;-76
2023/04/13 10:35:54;;;;;;;9.57;2.20;;;13.50;55.10;;;;;;5030182;28;20466;-76
2023/04/13 10:38:20;;;;;;;13.25;2.75;;;14.00;53.90;;;;;;5035683;28;20028;-77
2023/04/13 10:40:47;;;;;;;7.68;1.90;;;14.10;51.70;;;;;;5023832;28;20386;-77
2023/04/13 10:43:24;;;;;;;11.50;2.88;;;13.90;52.10;;;;;;5030083;28;20375;-78
2023/04/13 10:46:02;;;;;;;11.20;2.58;;;13.40;53.60;;;;;;5023208;28;20478;-78
2023/04/13 10:48:28;;;;;;;14.48;2.58;;;12.90;54.80;;;;;;5023725;28;20026;-79
2023/04/13 10:50:58;;;;;;;9.80;2.35;;;12.50;55.90;;;;;;5023986;28;20470;-78
2023/04/13 10:53:24;;;;;;;9.90;3.17;;;12.40;56.20;;;;;;5028649;28;20109;-79
2023/04/13 10:55:49;;;;;;;10.18;2.80;;;12.60;55.40;;;;;;5017465;28;20037;-78
2023/04/13 10:58:17;;;;;;;9.27;2.42;;;12.90;55.10;;;;;;5027656;28;20378;-78
2023/04/13 11:00:45;;;;;;;11.80;3.00;;;13.40;53.50;;;;;;5023856;28;20417;-78
2023/04/13 11:03:10;;;;;;;12.07;2.60;;;13.20;53.30;;;;;;5027575;28;20101;-79
2023/04/13 11:05:37;;;;;;;12.48;2.60;;;13.00;53.90;;;;;;5018020;28;20160;-78
2023/04/13 11:08:03;;;;;;;11.10;2.45;;;12.80;54.80;;;;;;5022575;28;20427;-79
2023/04/13 11:10:31;;;;;;;8.93;2.20;;;12.70;56.00;;;;;;5020728;28;20453;-77
2023/04/13 11:12:57;;;;;;;9.70;1.92;;;12.80;54.30;;;;;;5024373;28;20079;-76
2023/04/13 11:15:26;;;;;;;7.50;2.08;;;13.30;50.60;;;;;;5028371;28;20041;-79
2023/04/13 11:17:59;;;;;;;6.65;2.20;;;14.00;50.30;;;;;;5021866;28;20072;-77
2023/04/13 11:20:36;;;;;;;8.63;2.17;;;14.50;49.50;;;;;;5028559;28;20032;-79
2023/04/13 11:23:05;;;;;;;9.43;2.13;;;14.70;47.60;;;;;;5025327;28;20117;-78
2023/04/13 11:25:34;;;;;;;11.35;2.63;;;14.10;50.20;;;;;;5032811;28;20033;-78
2023/04/13 11:28:02;;;;;;;11.65;2.28;;;13.80;51.30;;;;;;5033458;28;20351;-78
2023/04/13 11:30:29;;;;;;;11.10;2.38;;;13.80;50.10;;;;;;5027280;28;20029;-78
2023/04/13 11:32:58;;;;;;;7.13;2.47;;;14.10;50.80;;;;;;5025633;28;20029;-78
2023/04/13 11:35:25;;;;;;;6.55;1.80;;;13.60;48.40;;;;;;5031385;28;20494;-78
2023/04/13 11:37:54;;;;;;;6.95;1.83;;;13.70;49.10;;;;;;5036510;28;20482;-78
2023/04/13 11:40:26;;;;;;;8.68;2.17;;;14.30;48.60;;;;;;5029624;28;20043;-79
2023/04/13 11:42:57;;;;;;;8.43;1.98;;;14.90;47.20;;;;;;5026287;28;20091;-79
2023/04/13 11:45:28;;;;;;;5.10;1.60;;;14.90;45.60;;;;;;5028050;28;20107;-79
2023/04/13 11:47:55;;;;;;;10.90;2.10;;;14.60;46.30;;;;;;5022411;28;20037;-79
2023/04/13 11:50:22;;;;;;;7.93;1.85;;;14.50;46.60;;;;;;5023850;28;20426;-78
2023/04/13 11:52:50;;;;;;;6.55;1.88;;;15.00;47.00;;;;;;5018275;28;20482;-80
2023/04/13 11:55:17;;;;;;;7.40;2.08;;;15.40;45.70;;;;;;5017370;28;20430;-79
2023/04/13 11:57:44;;;;;;;8.93;2.33;;;15.80;45.10;;;;;;5024641;28;20048;-80
2023/04/13 12:00:22;;;;;;;7.70;2.17;;;16.10;45.50;;;;;;5018644;28;20061;-79
2023/04/13 12:02:50;;;;;;;10.10;2.65;;;16.00;46.00;;;;;;5016253;28;20584;-78
2023/04/13 12:05:27;;;;;;;8.90;2.50;;;16.40;44.50;;;;;;5035127;28;20038;-79
2023/04/13 12:07:54;;;;;;;7.82;2.47;;;16.30;43.50;;;;;;5017251;28;20095;-78
2023/04/13 12:10:23;;;;;;;8.07;2.28;;;16.50;43.20;;;;;;5020159;28;20036;-78
2023/04/13 12:13:00;;;;;;;6.97;2.00;;;16.70;42.30;;;;;;5014617;28;20029;-79
2023/04/13 12:15:28;;;;;;;9.82;3.25;;;16.50;41.70;;;;;;5029610;28;20028;-80
2023/04/13 12:17:55;;;;;;;10.50;2.70;;;16.40;41.80;;;;;;5032703;28;20504;-79
2023/04/13 12:20:21;;;;;;;5.70;1.80;;;16.20;43.40;;;;;;5028190;28;20028;-79
2023/04/13 12:22:47;;;;;;;7.15;2.13;;;16.60;42.90;;;;;;5028842;28;20368;-78
2023/04/13 12:25:15;;;;;;;5.53;2.03;;;16.90;41.90;;;;;;5022714;28;20083;-78
2023/04/13 12:27:41;;;;;;;8.80;2.50;;;17.20;42.20;;;;;;5025019;28;20096;-79
2023/04/13 12:30:14;;;;;;;9.90;2.22;;;16.80;40.60;;;;;;5023826;28;20105;-79
2023/04/13 12:32:42;;;;;;;9.60;2.80;;;16.30;39.70;;;;;;5027230;28;20064;-78
2023/04/13 12:35:08;;;;;;;9.18;2.75;;;16.40;40.90;;;;;;5029089;28;20028;-79
2023/04/13 12:37:41;;;;;;;8.48;2.63;;;16.80;40.50;;;;;;5028781;28;20038;-79
2023/04/13 12:40:13;;;;;;;10.30;2.70;;;16.40;39.90;;;;;;5025904;28;20033;-79
2023/04/13 12:42:40;;;;;;;10.50;2.90;;;15.80;42.70;;;;;;5026081;28;20037;-79
2023/04/13 12:45:07;;;;;;;10.73;2.83;;;15.70;44.30;;;;;;5025863;28;20025;-79
2023/04/13 12:47:33;;;;;;;10.88;3.17;;;15.60;43.20;;;;;;5022330;28;20052;-78
2023/04/13 12:49:58;;;;;;;8.73;2.35;;;15.50;44.90;;;;;;5028676;28;20021;-79